sensor_id;sensor_type;location;lat;lon;timestamp;P1;durP1;ratioP1;P2;durP2;ratioP2
25213;SDS011;13160;51.834;4.706;2022-07-24T00:01:35;34.05;;;30.42;;
25213;SDS011;13160;51.834;4.706;2022-07-24T00:04:04;33.03;;;29.45;;
25213;SDS011;13160;51.834;4.706;2022-07-24T00:06:34;34.70;;;31.15;;
25213;SDS011;13160;51.834;4.706;2022-07-24T00:09:02;33.40;;;29.95;;
25213;SDS011;13160;51.834;4.706;2022-07-24T00:11:32;33.92;;;30.58;;
25213;SDS011;13160;51.834;4.706;2022-07-24T00:14:01;34.15;;;30.67;;
25213;SDS011;13160;51.834;4.706;2022-07-24T00:16:36;32.72;;;29.52;;
25213;SDS011;13160;51.834;4.706;2022-07-24T00:19:05;33.72;;;30.38;;
25213;SDS011;13160;51.834;4.706;2022-07-24T00:21:34;33.08;;;29.73;;
25213;SDS011;13160;51.834;4.706;2022-07-24T00:24:02;34.08;;;30.52;;
25213;SDS011;13160;51.834;4.706;2022-07-24T00:26:31;33.33;;;29.98;;
25213;SDS011;13160;51.834;4.706;2022-07-24T00:29:00;33.08;;;29.55;;
25213;SDS011;13160;51.834;4.706;2022-07-24T00:31:29;30.95;;;27.75;;
25213;SDS011;13160;51.834;4.706;2022-07-24T00:34:00;31.00;;;27.73;;
25213;SDS011;13160;51.834;4.706;2022-07-24T00:36:28;31.02;;;27.45;;
25213;SDS011;13160;51.834;4.706;2022-07-24T00:38:56;29.85;;;26.33;;
25213;SDS011;13160;51.834;4.706;2022-07-24T00:41:25;32.17;;;26.45;;
25213;SDS011;13160;51.834;4.706;2022-07-24T00:44:00;28.05;;;25.05;;
25213;SDS011;13160;51.834;4.706;2022-07-24T00:46:31;27.88;;;24.92;;
25213;SDS011;13160;51.834;4.706;2022-07-24T00:49:02;29.80;;;25.13;;
25213;SDS011;13160;51.834;4.706;2022-07-24T00:51:44;29.08;;;25.75;;
25213;SDS011;13160;51.834;4.706;2022-07-24T00:54:14;28.88;;;25.10;;
25213;SDS011;13160;51.834;4.706;2022-07-24T00:56:45;27.13;;;24.23;;
25213;SDS011;13160;51.834;4.706;2022-07-24T00:59:17;27.05;;;24.23;;
25213;SDS011;13160;51.834;4.706;2022-07-24T01:01:46;27.90;;;24.60;;
25213;SDS011;13160;51.834;4.706;2022-07-24T01:04:17;27.55;;;24.58;;
25213;SDS011;13160;51.834;4.706;2022-07-24T01:06:47;28.27;;;24.33;;
25213;SDS011;13160;51.834;4.706;2022-07-24T01:09:15;27.52;;;24.08;;
25213;SDS011;13160;51.834;4.706;2022-07-24T01:11:44;27.20;;;24.25;;
25213;SDS011;13160;51.834;4.706;2022-07-24T01:14:13;26.90;;;24.10;;
25213;SDS011;13160;51.834;4.706;2022-07-24T01:16:42;28.35;;;24.70;;
25213;SDS011;13160;51.834;4.706;2022-07-24T01:19:11;30.23;;;25.55;;
25213;SDS011;13160;51.834;4.706;2022-07-24T01:21:45;28.90;;;25.98;;
25213;SDS011;13160;51.834;4.706;2022-07-24T01:24:15;31.15;;;25.83;;
25213;SDS011;13160;51.834;4.706;2022-07-24T01:26:44;29.65;;;26.05;;
25213;SDS011;13160;51.834;4.706;2022-07-24T01:29:13;28.25;;;24.33;;
25213;SDS011;13160;51.834;4.706;2022-07-24T01:31:42;29.58;;;24.58;;
25213;SDS011;13160;51.834;4.706;2022-07-24T01:34:10;28.95;;;25.00;;
25213;SDS011;13160;51.834;4.706;2022-07-24T01:36:39;27.33;;;22.58;;
25213;SDS011;13160;51.834;4.706;2022-07-24T01:39:08;30.48;;;23.38;;
25213;SDS011;13160;51.834;4.706;2022-07-24T01:41:37;29.60;;;23.42;;
25213;SDS011;13160;51.834;4.706;2022-07-24T01:44:05;28.55;;;23.45;;
25213;SDS011;13160;51.834;4.706;2022-07-24T01:46:34;25.08;;;22.38;;
25213;SDS011;13160;51.834;4.706;2022-07-24T01:49:02;24.95;;;22.23;;
25213;SDS011;13160;51.834;4.706;2022-07-24T01:51:32;29.02;;;23.98;;
25213;SDS011;13160;51.834;4.706;2022-07-24T01:54:00;25.35;;;22.75;;
25213;SDS011;13160;51.834;4.706;2022-07-24T01:56:30;25.83;;;22.02;;
25213;SDS011;13160;51.834;4.706;2022-07-24T01:58:58;25.48;;;22.42;;
25213;SDS011;13160;51.834;4.706;2022-07-24T02:01:32;28.08;;;22.92;;
25213;SDS011;13160;51.834;4.706;2022-07-24T02:04:01;30.02;;;23.98;;
25213;SDS011;13160;51.834;4.706;2022-07-24T02:06:30;26.73;;;22.80;;
25213;SDS011;13160;51.834;4.706;2022-07-24T02:08:58;28.27;;;23.48;;
25213;SDS011;13160;51.834;4.706;2022-07-24T02:11:27;25.25;;;22.20;;
25213;SDS011;13160;51.834;4.706;2022-07-24T02:13:57;32.15;;;21.98;;
25213;SDS011;13160;51.834;4.706;2022-07-24T02:16:26;24.55;;;20.25;;
25213;SDS011;13160;51.834;4.706;2022-07-24T02:18:55;23.33;;;19.05;;
25213;SDS011;13160;51.834;4.706;2022-07-24T02:21:23;24.67;;;18.38;;
25213;SDS011;13160;51.834;4.706;2022-07-24T02:23:52;23.55;;;17.38;;
25213;SDS011;13160;51.834;4.706;2022-07-24T02:26:20;21.40;;;17.00;;
25213;SDS011;13160;51.834;4.706;2022-07-24T02:28:50;20.92;;;15.65;;
25213;SDS011;13160;51.834;4.706;2022-07-24T02:31:18;19.95;;;16.25;;
25213;SDS011;13160;51.834;4.706;2022-07-24T02:33:47;21.10;;;14.25;;
25213;SDS011;13160;51.834;4.706;2022-07-24T02:36:15;18.65;;;14.25;;
25213;SDS011;13160;51.834;4.706;2022-07-24T02:38:43;22.38;;;16.40;;
25213;SDS011;13160;51.834;4.706;2022-07-24T02:41:11;17.35;;;14.77;;
25213;SDS011;13160;51.834;4.706;2022-07-24T02:43:40;19.30;;;15.23;;
25213;SDS011;13160;51.834;4.706;2022-07-24T02:46:09;17.67;;;14.50;;
25213;SDS011;13160;51.834;4.706;2022-07-24T02:48:37;20.10;;;14.70;;
25213;SDS011;13160;51.834;4.706;2022-07-24T02:51:06;19.80;;;14.70;;
25213;SDS011;13160;51.834;4.706;2022-07-24T02:53:34;18.75;;;14.00;;
25213;SDS011;13160;51.834;4.706;2022-07-24T02:56:02;16.50;;;13.38;;
25213;SDS011;13160;51.834;4.706;2022-07-24T02:58:31;17.65;;;13.43;;
25213;SDS011;13160;51.834;4.706;2022-07-24T03:01:00;17.42;;;12.52;;
25213;SDS011;13160;51.834;4.706;2022-07-24T03:03:29;18.60;;;11.80;;
25213;SDS011;13160;51.834;4.706;2022-07-24T03:05:57;16.40;;;11.65;;
25213;SDS011;13160;51.834;4.706;2022-07-24T03:08:26;16.95;;;11.70;;
25213;SDS011;13160;51.834;4.706;2022-07-24T03:10:54;13.88;;;11.25;;
25213;SDS011;13160;51.834;4.706;2022-07-24T03:13:22;16.23;;;12.07;;
25213;SDS011;13160;51.834;4.706;2022-07-24T03:15:50;14.20;;;11.00;;
25213;SDS011;13160;51.834;4.706;2022-07-24T03:18:18;15.13;;;11.98;;
25213;SDS011;13160;51.834;4.706;2022-07-24T03:20:49;15.60;;;11.25;;
25213;SDS011;13160;51.834;4.706;2022-07-24T03:23:17;18.00;;;11.85;;
25213;SDS011;13160;51.834;4.706;2022-07-24T03:25:46;16.75;;;11.48;;
25213;SDS011;13160;51.834;4.706;2022-07-24T03:28:14;13.30;;;10.95;;
25213;SDS011;13160;51.834;4.706;2022-07-24T03:30:43;14.18;;;10.90;;
25213;SDS011;13160;51.834;4.706;2022-07-24T03:33:11;16.50;;;11.93;;
25213;SDS011;13160;51.834;4.706;2022-07-24T03:35:39;14.65;;;11.13;;
25213;SDS011;13160;51.834;4.706;2022-07-24T03:38:09;16.67;;;11.80;;
25213;SDS011;13160;51.834;4.706;2022-07-24T03:40:37;19.13;;;11.30;;
25213;SDS011;13160;51.834;4.706;2022-07-24T03:43:05;15.80;;;10.50;;
25213;SDS011;13160;51.834;4.706;2022-07-24T03:45:34;15.10;;;10.38;;
25213;SDS011;13160;51.834;4.706;2022-07-24T03:48:02;13.27;;;9.82;;
25213;SDS011;13160;51.834;4.706;2022-07-24T03:50:31;14.77;;;10.02;;
25213;SDS011;13160;51.834;4.706;2022-07-24T03:53:00;14.25;;;10.07;;
25213;SDS011;13160;51.834;4.706;2022-07-24T03:55:30;15.27;;;9.60;;
25213;SDS011;13160;51.834;4.706;2022-07-24T03:57:58;13.63;;;9.35;;
25213;SDS011;13160;51.834;4.706;2022-07-24T04:00:26;12.20;;;9.43;;
25213;SDS011;13160;51.834;4.706;2022-07-24T04:02:54;13.50;;;9.15;;
25213;SDS011;13160;51.834;4.706;2022-07-24T04:05:22;13.32;;;8.80;;
25213;SDS011;13160;51.834;4.706;2022-07-24T04:07:51;11.50;;;8.38;;
25213;SDS011;13160;51.834;4.706;2022-07-24T04:10:19;11.38;;;8.23;;
25213;SDS011;13160;51.834;4.706;2022-07-24T04:12:48;10.40;;;8.23;;
25213;SDS011;13160;51.834;4.706;2022-07-24T04:15:17;10.18;;;7.50;;
25213;SDS011;13160;51.834;4.706;2022-07-24T04:17:45;10.93;;;7.25;;
25213;SDS011;13160;51.834;4.706;2022-07-24T04:20:13;11.05;;;7.95;;
25213;SDS011;13160;51.834;4.706;2022-07-24T04:22:42;12.38;;;7.70;;
25213;SDS011;13160;51.834;4.706;2022-07-24T04:25:12;12.95;;;7.57;;
25213;SDS011;13160;51.834;4.706;2022-07-24T04:27:40;10.00;;;6.95;;
25213;SDS011;13160;51.834;4.706;2022-07-24T04:30:11;10.82;;;7.07;;
25213;SDS011;13160;51.834;4.706;2022-07-24T04:32:40;8.10;;;6.68;;
25213;SDS011;13160;51.834;4.706;2022-07-24T04:35:08;8.98;;;6.68;;
25213;SDS011;13160;51.834;4.706;2022-07-24T04:37:37;9.30;;;6.72;;
25213;SDS011;13160;51.834;4.706;2022-07-24T04:40:05;7.75;;;6.35;;
25213;SDS011;13160;51.834;4.706;2022-07-24T04:42:35;10.13;;;6.75;;
25213;SDS011;13160;51.834;4.706;2022-07-24T04:45:03;7.82;;;5.80;;
25213;SDS011;13160;51.834;4.706;2022-07-24T04:47:35;8.15;;;6.30;;
25213;SDS011;13160;51.834;4.706;2022-07-24T04:50:05;9.90;;;6.40;;
25213;SDS011;13160;51.834;4.706;2022-07-24T04:52:35;10.38;;;7.18;;
25213;SDS011;13160;51.834;4.706;2022-07-24T04:55:04;10.50;;;7.68;;
25213;SDS011;13160;51.834;4.706;2022-07-24T04:57:33;11.85;;;8.15;;
25213;SDS011;13160;51.834;4.706;2022-07-24T05:00:02;9.32;;;7.65;;
25213;SDS011;13160;51.834;4.706;2022-07-24T05:02:34;12.18;;;9.13;;
25213;SDS011;13160;51.834;4.706;2022-07-24T05:05:03;12.02;;;8.68;;
25213;SDS011;13160;51.834;4.706;2022-07-24T05:07:32;12.57;;;8.52;;
25213;SDS011;13160;51.834;4.706;2022-07-24T05:10:01;11.65;;;8.35;;
25213;SDS011;13160;51.834;4.706;2022-07-24T05:12:30;10.77;;;8.48;;
25213;SDS011;13160;51.834;4.706;2022-07-24T05:14:58;10.23;;;8.38;;
25213;SDS011;13160;51.834;4.706;2022-07-24T05:17:26;11.32;;;9.15;;
25213;SDS011;13160;51.834;4.706;2022-07-24T05:19:56;10.13;;;7.80;;
25213;SDS011;13160;51.834;4.706;2022-07-24T05:22:24;12.57;;;8.52;;
25213;SDS011;13160;51.834;4.706;2022-07-24T05:24:52;12.00;;;9.10;;
25213;SDS011;13160;51.834;4.706;2022-07-24T05:27:20;10.55;;;8.18;;
25213;SDS011;13160;51.834;4.706;2022-07-24T05:29:49;11.50;;;8.23;;
25213;SDS011;13160;51.834;4.706;2022-07-24T05:32:17;10.68;;;8.13;;
25213;SDS011;13160;51.834;4.706;2022-07-24T05:34:45;10.32;;;8.00;;
25213;SDS011;13160;51.834;4.706;2022-07-24T05:37:15;13.55;;;8.60;;
25213;SDS011;13160;51.834;4.706;2022-07-24T05:39:43;12.35;;;9.48;;
25213;SDS011;13160;51.834;4.706;2022-07-24T05:42:11;12.40;;;9.20;;
25213;SDS011;13160;51.834;4.706;2022-07-24T05:44:40;12.68;;;9.68;;
25213;SDS011;13160;51.834;4.706;2022-07-24T05:47:08;12.25;;;9.00;;
25213;SDS011;13160;51.834;4.706;2022-07-24T05:49:36;10.75;;;9.00;;
25213;SDS011;13160;51.834;4.706;2022-07-24T05:52:04;10.82;;;8.82;;
25213;SDS011;13160;51.834;4.706;2022-07-24T05:54:36;12.60;;;9.00;;
25213;SDS011;13160;51.834;4.706;2022-07-24T05:57:04;11.77;;;8.63;;
25213;SDS011;13160;51.834;4.706;2022-07-24T05:59:32;14.05;;;8.93;;
25213;SDS011;13160;51.834;4.706;2022-07-24T06:02:01;11.13;;;8.77;;
25213;SDS011;13160;51.834;4.706;2022-07-24T06:04:30;9.70;;;8.18;;
25213;SDS011;13160;51.834;4.706;2022-07-24T06:06:59;11.18;;;8.55;;
25213;SDS011;13160;51.834;4.706;2022-07-24T06:09:28;13.65;;;9.63;;
25213;SDS011;13160;51.834;4.706;2022-07-24T06:11:58;12.43;;;8.60;;
25213;SDS011;13160;51.834;4.706;2022-07-24T06:14:26;10.43;;;8.68;;
25213;SDS011;13160;51.834;4.706;2022-07-24T06:16:55;10.00;;;8.27;;
25213;SDS011;13160;51.834;4.706;2022-07-24T06:19:24;13.00;;;8.40;;
25213;SDS011;13160;51.834;4.706;2022-07-24T06:21:53;9.85;;;8.30;;
25213;SDS011;13160;51.834;4.706;2022-07-24T06:24:21;10.52;;;7.93;;
25213;SDS011;13160;51.834;4.706;2022-07-24T06:26:50;10.13;;;7.18;;
25213;SDS011;13160;51.834;4.706;2022-07-24T06:29:39;9.85;;;7.35;;
25213;SDS011;13160;51.834;4.706;2022-07-24T06:32:07;12.55;;;8.13;;
25213;SDS011;13160;51.834;4.706;2022-07-24T06:34:36;9.23;;;7.15;;
25213;SDS011;13160;51.834;4.706;2022-07-24T06:37:04;11.07;;;7.50;;
25213;SDS011;13160;51.834;4.706;2022-07-24T06:39:32;9.50;;;7.15;;
25213;SDS011;13160;51.834;4.706;2022-07-24T06:42:01;9.38;;;7.28;;
25213;SDS011;13160;51.834;4.706;2022-07-24T06:44:29;8.15;;;6.07;;
25213;SDS011;13160;51.834;4.706;2022-07-24T06:47:01;7.18;;;5.70;;
25213;SDS011;13160;51.834;4.706;2022-07-24T06:49:29;9.23;;;5.60;;
25213;SDS011;13160;51.834;4.706;2022-07-24T06:51:58;7.60;;;5.22;;
25213;SDS011;13160;51.834;4.706;2022-07-24T06:54:26;8.77;;;5.20;;
25213;SDS011;13160;51.834;4.706;2022-07-24T06:56:54;6.85;;;4.93;;
25213;SDS011;13160;51.834;4.706;2022-07-24T06:59:22;6.88;;;4.45;;
25213;SDS011;13160;51.834;4.706;2022-07-24T07:01:51;7.05;;;4.13;;
25213;SDS011;13160;51.834;4.706;2022-07-24T07:04:20;7.78;;;4.00;;
25213;SDS011;13160;51.834;4.706;2022-07-24T07:06:49;7.60;;;4.53;;
25213;SDS011;13160;51.834;4.706;2022-07-24T07:09:17;6.85;;;3.97;;
25213;SDS011;13160;51.834;4.706;2022-07-24T07:11:45;6.38;;;4.20;;
25213;SDS011;13160;51.834;4.706;2022-07-24T07:14:17;6.60;;;4.13;;
25213;SDS011;13160;51.834;4.706;2022-07-24T07:16:45;7.28;;;4.25;;
25213;SDS011;13160;51.834;4.706;2022-07-24T07:19:14;6.50;;;3.90;;
25213;SDS011;13160;51.834;4.706;2022-07-24T07:21:43;6.53;;;3.63;;
25213;SDS011;13160;51.834;4.706;2022-07-24T07:24:11;6.35;;;3.67;;
25213;SDS011;13160;51.834;4.706;2022-07-24T07:26:40;8.18;;;4.20;;
25213;SDS011;13160;51.834;4.706;2022-07-24T07:29:08;7.72;;;4.15;;
25213;SDS011;13160;51.834;4.706;2022-07-24T07:31:36;6.45;;;3.97;;
25213;SDS011;13160;51.834;4.706;2022-07-24T07:34:05;8.07;;;4.32;;
25213;SDS011;13160;51.834;4.706;2022-07-24T07:36:33;6.47;;;4.10;;
25213;SDS011;13160;51.834;4.706;2022-07-24T07:39:03;5.32;;;3.95;;
25213;SDS011;13160;51.834;4.706;2022-07-24T07:41:32;5.57;;;3.38;;
25213;SDS011;13160;51.834;4.706;2022-07-24T07:44:00;4.75;;;3.22;;
25213;SDS011;13160;51.834;4.706;2022-07-24T07:46:29;6.45;;;3.10;;
25213;SDS011;13160;51.834;4.706;2022-07-24T07:48:57;5.22;;;2.95;;
25213;SDS011;13160;51.834;4.706;2022-07-24T07:51:26;5.47;;;3.50;;
25213;SDS011;13160;51.834;4.706;2022-07-24T07:53:54;5.57;;;2.95;;
25213;SDS011;13160;51.834;4.706;2022-07-24T07:56:24;7.13;;;3.28;;
25213;SDS011;13160;51.834;4.706;2022-07-24T07:58:52;5.80;;;2.92;;
25213;SDS011;13160;51.834;4.706;2022-07-24T08:01:26;6.10;;;3.45;;
25213;SDS011;13160;51.834;4.706;2022-07-24T08:03:54;5.35;;;3.45;;
25213;SDS011;13160;51.834;4.706;2022-07-24T08:06:23;6.45;;;3.70;;
25213;SDS011;13160;51.834;4.706;2022-07-24T08:08:52;5.28;;;2.95;;
25213;SDS011;13160;51.834;4.706;2022-07-24T08:11:21;4.68;;;2.67;;
25213;SDS011;13160;51.834;4.706;2022-07-24T08:13:53;5.47;;;2.90;;
25213;SDS011;13160;51.834;4.706;2022-07-24T08:16:21;5.07;;;3.05;;
25213;SDS011;13160;51.834;4.706;2022-07-24T08:18:50;4.70;;;2.88;;
25213;SDS011;13160;51.834;4.706;2022-07-24T08:21:18;5.25;;;3.15;;
25213;SDS011;13160;51.834;4.706;2022-07-24T08:23:48;9.07;;;3.30;;
25213;SDS011;13160;51.834;4.706;2022-07-24T08:26:17;5.55;;;3.10;;
25213;SDS011;13160;51.834;4.706;2022-07-24T08:28:46;4.55;;;3.20;;
25213;SDS011;13160;51.834;4.706;2022-07-24T08:31:14;6.32;;;3.00;;
25213;SDS011;13160;51.834;4.706;2022-07-24T08:33:43;4.68;;;2.85;;
25213;SDS011;13160;51.834;4.706;2022-07-24T08:36:11;4.70;;;3.10;;
25213;SDS011;13160;51.834;4.706;2022-07-24T08:38:39;4.22;;;2.75;;
25213;SDS011;13160;51.834;4.706;2022-07-24T08:41:07;7.75;;;3.30;;
25213;SDS011;13160;51.834;4.706;2022-07-24T08:43:36;5.38;;;2.90;;
25213;SDS011;13160;51.834;4.706;2022-07-24T08:46:05;6.03;;;2.50;;
25213;SDS011;13160;51.834;4.706;2022-07-24T08:48:39;5.70;;;3.08;;
25213;SDS011;13160;51.834;4.706;2022-07-24T08:51:10;4.90;;;2.80;;
25213;SDS011;13160;51.834;4.706;2022-07-24T08:53:41;5.60;;;2.90;;
25213;SDS011;13160;51.834;4.706;2022-07-24T08:56:11;4.72;;;2.80;;
25213;SDS011;13160;51.834;4.706;2022-07-24T08:58:39;6.28;;;2.42;;
25213;SDS011;13160;51.834;4.706;2022-07-24T09:01:09;6.63;;;3.00;;
25213;SDS011;13160;51.834;4.706;2022-07-24T09:03:38;5.50;;;2.78;;
25213;SDS011;13160;51.834;4.706;2022-07-24T09:06:09;5.70;;;3.25;;
25213;SDS011;13160;51.834;4.706;2022-07-24T09:08:39;5.05;;;3.38;;
25213;SDS011;13160;51.834;4.706;2022-07-24T09:11:09;4.72;;;2.90;;
25213;SDS011;13160;51.834;4.706;2022-07-24T09:13:43;7.00;;;2.75;;
25213;SDS011;13160;51.834;4.706;2022-07-24T09:16:32;5.38;;;2.90;;
25213;SDS011;13160;51.834;4.706;2022-07-24T09:19:02;5.18;;;3.08;;
25213;SDS011;13160;51.834;4.706;2022-07-24T09:21:41;7.47;;;3.20;;
25213;SDS011;13160;51.834;4.706;2022-07-24T09:24:11;5.55;;;3.25;;
25213;SDS011;13160;51.834;4.706;2022-07-24T09:26:45;4.78;;;3.08;;
25213;SDS011;13160;51.834;4.706;2022-07-24T09:29:16;4.60;;;2.88;;
25213;SDS011;13160;51.834;4.706;2022-07-24T09:31:51;4.90;;;2.70;;
25213;SDS011;13160;51.834;4.706;2022-07-24T09:34:21;5.18;;;2.85;;
25213;SDS011;13160;51.834;4.706;2022-07-24T09:36:57;5.05;;;2.40;;
25213;SDS011;13160;51.834;4.706;2022-07-24T09:39:28;4.72;;;2.38;;
25213;SDS011;13160;51.834;4.706;2022-07-24T09:42:00;5.90;;;2.97;;
25213;SDS011;13160;51.834;4.706;2022-07-24T09:44:30;5.43;;;2.70;;
25213;SDS011;13160;51.834;4.706;2022-07-24T09:47:03;5.85;;;2.50;;
25213;SDS011;13160;51.834;4.706;2022-07-24T09:49:34;5.10;;;3.08;;
25213;SDS011;13160;51.834;4.706;2022-07-24T09:52:07;8.02;;;2.78;;
25213;SDS011;13160;51.834;4.706;2022-07-24T09:54:42;4.97;;;2.90;;
25213;SDS011;13160;51.834;4.706;2022-07-24T09:57:16;5.47;;;2.97;;
25213;SDS011;13160;51.834;4.706;2022-07-24T09:59:49;6.47;;;2.47;;
25213;SDS011;13160;51.834;4.706;2022-07-24T10:02:24;4.20;;;2.50;;
25213;SDS011;13160;51.834;4.706;2022-07-24T10:04:55;4.05;;;2.67;;
25213;SDS011;13160;51.834;4.706;2022-07-24T10:07:26;4.78;;;2.60;;
25213;SDS011;13160;51.834;4.706;2022-07-24T10:09:56;5.63;;;2.47;;
25213;SDS011;13160;51.834;4.706;2022-07-24T10:12:28;4.82;;;2.50;;
25213;SDS011;13160;51.834;4.706;2022-07-24T10:15:00;4.68;;;2.63;;
25213;SDS011;13160;51.834;4.706;2022-07-24T10:17:34;5.10;;;2.58;;
25213;SDS011;13160;51.834;4.706;2022-07-24T10:20:39;4.05;;;2.30;;
25213;SDS011;13160;51.834;4.706;2022-07-24T10:23:16;4.53;;;2.42;;
25213;SDS011;13160;51.834;4.706;2022-07-24T10:25:55;7.47;;;2.50;;
25213;SDS011;13160;51.834;4.706;2022-07-24T10:28:36;5.10;;;2.40;;
25213;SDS011;13160;51.834;4.706;2022-07-24T10:31:07;3.95;;;2.10;;
25213;SDS011;13160;51.834;4.706;2022-07-24T10:33:39;5.72;;;2.45;;
25213;SDS011;13160;51.834;4.706;2022-07-24T10:36:15;4.00;;;2.47;;
25213;SDS011;13160;51.834;4.706;2022-07-24T10:38:49;6.60;;;2.55;;
25213;SDS011;13160;51.834;4.706;2022-07-24T10:41:24;4.60;;;2.22;;
25213;SDS011;13160;51.834;4.706;2022-07-24T10:46:57;3.58;;;2.22;;
25213;SDS011;13160;51.834;4.706;2022-07-24T10:49:37;4.18;;;2.35;;
25213;SDS011;13160;51.834;4.706;2022-07-24T10:52:20;5.88;;;2.40;;
25213;SDS011;13160;51.834;4.706;2022-07-24T10:58:01;4.18;;;2.05;;
25213;SDS011;13160;51.834;4.706;2022-07-24T11:00:33;5.45;;;2.45;;
25213;SDS011;13160;51.834;4.706;2022-07-24T11:03:08;5.32;;;2.28;;
25213;SDS011;13160;51.834;4.706;2022-07-24T11:08:38;6.63;;;2.47;;
25213;SDS011;13160;51.834;4.706;2022-07-24T11:11:11;4.53;;;2.20;;
25213;SDS011;13160;51.834;4.706;2022-07-24T11:13:44;4.75;;;2.50;;
25213;SDS011;13160;51.834;4.706;2022-07-24T11:16:22;6.13;;;2.42;;
25213;SDS011;13160;51.834;4.706;2022-07-24T11:22:03;3.97;;;2.30;;
25213;SDS011;13160;51.834;4.706;2022-07-24T11:24:34;6.43;;;2.30;;
25213;SDS011;13160;51.834;4.706;2022-07-24T11:27:04;5.68;;;2.15;;
25213;SDS011;13160;51.834;4.706;2022-07-24T11:29:35;4.65;;;2.25;;
25213;SDS011;13160;51.834;4.706;2022-07-24T11:32:06;4.15;;;2.70;;
25213;SDS011;13160;51.834;4.706;2022-07-24T11:34:42;3.67;;;2.10;;
25213;SDS011;13160;51.834;4.706;2022-07-24T11:37:14;4.45;;;2.53;;
25213;SDS011;13160;51.834;4.706;2022-07-24T11:39:44;5.35;;;2.53;;
25213;SDS011;13160;51.834;4.706;2022-07-24T11:42:16;4.70;;;2.45;;
25213;SDS011;13160;51.834;4.706;2022-07-24T11:44:45;5.15;;;2.35;;
25213;SDS011;13160;51.834;4.706;2022-07-24T11:47:15;5.20;;;2.40;;
25213;SDS011;13160;51.834;4.706;2022-07-24T11:49:46;7.68;;;4.60;;
25213;SDS011;13160;51.834;4.706;2022-07-24T11:52:18;5.25;;;2.80;;
25213;SDS011;13160;51.834;4.706;2022-07-24T11:54:50;4.75;;;2.40;;
25213;SDS011;13160;51.834;4.706;2022-07-24T11:57:21;4.13;;;2.20;;
25213;SDS011;13160;51.834;4.706;2022-07-24T12:00:13;6.07;;;2.67;;
25213;SDS011;13160;51.834;4.706;2022-07-24T12:02:45;5.30;;;2.50;;
25213;SDS011;13160;51.834;4.706;2022-07-24T12:05:22;5.32;;;2.63;;
25213;SDS011;13160;51.834;4.706;2022-07-24T12:07:54;8.25;;;2.63;;
25213;SDS011;13160;51.834;4.706;2022-07-24T12:10:24;5.15;;;2.28;;
25213;SDS011;13160;51.834;4.706;2022-07-24T12:12:53;5.32;;;2.00;;
25213;SDS011;13160;51.834;4.706;2022-07-24T12:15:24;6.72;;;2.53;;
25213;SDS011;13160;51.834;4.706;2022-07-24T12:17:55;5.40;;;2.33;;
25213;SDS011;13160;51.834;4.706;2022-07-24T12:20:26;5.25;;;2.30;;
25213;SDS011;13160;51.834;4.706;2022-07-24T12:22:58;4.90;;;2.50;;
25213;SDS011;13160;51.834;4.706;2022-07-24T12:25:27;5.22;;;2.50;;
25213;SDS011;13160;51.834;4.706;2022-07-24T12:28:03;4.47;;;2.47;;
25213;SDS011;13160;51.834;4.706;2022-07-24T12:30:34;5.78;;;2.80;;
25213;SDS011;13160;51.834;4.706;2022-07-24T12:33:07;4.43;;;2.42;;
25213;SDS011;13160;51.834;4.706;2022-07-24T12:35:51;7.97;;;2.70;;
25213;SDS011;13160;51.834;4.706;2022-07-24T12:38:24;6.45;;;2.65;;
25213;SDS011;13160;51.834;4.706;2022-07-24T12:41:03;4.63;;;2.83;;
25213;SDS011;13160;51.834;4.706;2022-07-24T12:43:45;4.38;;;2.55;;
25213;SDS011;13160;51.834;4.706;2022-07-24T12:46:15;3.63;;;2.53;;
25213;SDS011;13160;51.834;4.706;2022-07-24T12:48:56;7.22;;;2.60;;
25213;SDS011;13160;51.834;4.706;2022-07-24T12:51:32;4.60;;;2.45;;
25213;SDS011;13160;51.834;4.706;2022-07-24T12:54:18;4.35;;;2.17;;
25213;SDS011;13160;51.834;4.706;2022-07-24T12:56:51;4.22;;;2.50;;
25213;SDS011;13160;51.834;4.706;2022-07-24T12:59:23;4.45;;;2.80;;
25213;SDS011;13160;51.834;4.706;2022-07-24T13:01:54;5.75;;;2.60;;
25213;SDS011;13160;51.834;4.706;2022-07-24T13:04:25;5.13;;;2.25;;
25213;SDS011;13160;51.834;4.706;2022-07-24T13:06:55;4.07;;;2.70;;
25213;SDS011;13160;51.834;4.706;2022-07-24T13:09:26;4.10;;;2.60;;
25213;SDS011;13160;51.834;4.706;2022-07-24T13:12:03;4.05;;;2.58;;
25213;SDS011;13160;51.834;4.706;2022-07-24T13:14:33;5.32;;;3.03;;
25213;SDS011;13160;51.834;4.706;2022-07-24T13:17:03;4.75;;;2.80;;
25213;SDS011;13160;51.834;4.706;2022-07-24T13:19:35;4.72;;;2.35;;
25213;SDS011;13160;51.834;4.706;2022-07-24T13:22:04;4.93;;;2.58;;
25213;SDS011;13160;51.834;4.706;2022-07-24T13:24:34;4.65;;;2.72;;
25213;SDS011;13160;51.834;4.706;2022-07-24T13:27:04;4.97;;;2.78;;
25213;SDS011;13160;51.834;4.706;2022-07-24T13:29:33;6.50;;;2.78;;
25213;SDS011;13160;51.834;4.706;2022-07-24T13:32:02;5.40;;;2.97;;
25213;SDS011;13160;51.834;4.706;2022-07-24T13:34:31;5.88;;;2.50;;
25213;SDS011;13160;51.834;4.706;2022-07-24T13:37:02;4.35;;;2.42;;
25213;SDS011;13160;51.834;4.706;2022-07-24T13:39:35;6.53;;;3.08;;
25213;SDS011;13160;51.834;4.706;2022-07-24T13:42:07;5.35;;;2.83;;
25213;SDS011;13160;51.834;4.706;2022-07-24T13:44:35;5.53;;;2.90;;
25213;SDS011;13160;51.834;4.706;2022-07-24T13:47:03;4.93;;;2.80;;
25213;SDS011;13160;51.834;4.706;2022-07-24T13:49:32;6.22;;;4.03;;
25213;SDS011;13160;51.834;4.706;2022-07-24T13:52:00;4.82;;;2.92;;
25213;SDS011;13160;51.834;4.706;2022-07-24T13:54:28;4.75;;;3.00;;
25213;SDS011;13160;51.834;4.706;2022-07-24T13:56:59;6.00;;;2.80;;
25213;SDS011;13160;51.834;4.706;2022-07-24T13:59:29;4.93;;;3.08;;
25213;SDS011;13160;51.834;4.706;2022-07-24T14:01:57;6.18;;;2.95;;
25213;SDS011;13160;51.834;4.706;2022-07-24T14:04:26;5.93;;;3.03;;
25213;SDS011;13160;51.834;4.706;2022-07-24T14:06:56;4.47;;;2.50;;
25213;SDS011;13160;51.834;4.706;2022-07-24T14:09:25;6.15;;;3.03;;
25213;SDS011;13160;51.834;4.706;2022-07-24T14:11:54;5.05;;;2.90;;
25213;SDS011;13160;51.834;4.706;2022-07-24T14:14:24;4.32;;;2.47;;
25213;SDS011;13160;51.834;4.706;2022-07-24T14:16:54;3.88;;;2.42;;
25213;SDS011;13160;51.834;4.706;2022-07-24T14:19:23;4.57;;;2.80;;
25213;SDS011;13160;51.834;4.706;2022-07-24T14:21:51;3.72;;;2.58;;
25213;SDS011;13160;51.834;4.706;2022-07-24T14:24:19;4.20;;;2.40;;
25213;SDS011;13160;51.834;4.706;2022-07-24T14:26:48;6.32;;;2.80;;
25213;SDS011;13160;51.834;4.706;2022-07-24T14:29:18;5.03;;;3.00;;
25213;SDS011;13160;51.834;4.706;2022-07-24T14:31:48;4.65;;;2.60;;
25213;SDS011;13160;51.834;4.706;2022-07-24T14:34:17;5.20;;;2.63;;
25213;SDS011;13160;51.834;4.706;2022-07-24T14:36:45;4.57;;;2.72;;
25213;SDS011;13160;51.834;4.706;2022-07-24T14:39:13;3.90;;;2.33;;
25213;SDS011;13160;51.834;4.706;2022-07-24T14:41:42;5.20;;;2.58;;
25213;SDS011;13160;51.834;4.706;2022-07-24T14:44:10;4.28;;;2.47;;
25213;SDS011;13160;51.834;4.706;2022-07-24T14:46:39;5.05;;;2.17;;
25213;SDS011;13160;51.834;4.706;2022-07-24T14:49:09;4.20;;;2.55;;
25213;SDS011;13160;51.834;4.706;2022-07-24T14:51:38;4.82;;;2.42;;
25213;SDS011;13160;51.834;4.706;2022-07-24T14:54:06;4.47;;;2.30;;
25213;SDS011;13160;51.834;4.706;2022-07-24T14:56:36;4.25;;;2.53;;
25213;SDS011;13160;51.834;4.706;2022-07-24T14:59:05;5.03;;;2.42;;
25213;SDS011;13160;51.834;4.706;2022-07-24T15:01:45;4.95;;;2.60;;
25213;SDS011;13160;51.834;4.706;2022-07-24T15:04:16;5.80;;;2.53;;
25213;SDS011;13160;51.834;4.706;2022-07-24T15:06:44;4.47;;;2.30;;
25213;SDS011;13160;51.834;4.706;2022-07-24T15:09:12;6.05;;;2.50;;